createdAt,value
2018-08-13T00:00:14.660Z,19.22
2018-08-13T00:01:15.223Z,19.36
2018-08-13T00:02:15.787Z,19.34
2018-08-13T00:03:16.350Z,19.25
2018-08-13T00:04:16.913Z,19.24
2018-08-13T00:05:17.505Z,19.25
2018-08-13T00:06:18.084Z,19.29
2018-08-13T00:07:18.649Z,19.21
2018-08-13T00:08:19.211Z,19.21
2018-08-13T00:09:19.774Z,19.34
2018-08-13T00:10:20.360Z,19.22
2018-08-13T00:11:20.943Z,19.18
2018-08-13T00:12:21.525Z,19.14
2018-08-13T00:13:22.100Z,19.21
2018-08-13T00:14:22.653Z,19.16
2018-08-13T00:15:23.216Z,19.14
2018-08-13T00:16:23.779Z,19.11
2018-08-13T00:17:24.340Z,19.02
2018-08-13T00:18:24.910Z,18.93
2018-08-13T00:19:25.499Z,19.02
2018-08-13T00:20:26.038Z,18.98
2018-08-13T00:21:26.601Z,19.02
2018-08-13T00:22:27.163Z,19.02
2018-08-13T00:23:27.731Z,18.99
2018-08-13T00:24:28.315Z,18.99
2018-08-13T00:25:28.899Z,18.95
2018-08-13T00:26:29.460Z,19.02
2018-08-13T00:27:30.023Z,18.96
2018-08-13T00:28:30.587Z,18.98
2018-08-13T00:29:31.147Z,19.02
2018-08-13T00:30:31.710Z,19.04
2018-08-13T00:31:32.273Z,19.00
2018-08-13T00:32:32.835Z,19.07
2018-08-13T00:33:33.419Z,19.06
2018-08-13T00:34:33.981Z,19.11
2018-08-13T00:35:34.545Z,19.07
2018-08-13T00:36:35.106Z,19.04
2018-08-13T00:37:35.670Z,19.06
2018-08-13T00:38:36.232Z,19.06
2018-08-13T00:39:36.798Z,19.15
2018-08-13T00:40:37.377Z,19.02
2018-08-13T00:41:37.940Z,19.00
2018-08-13T00:42:38.506Z,19.02
2018-08-13T00:43:39.066Z,19.15
2018-08-13T00:44:39.628Z,19.02
2018-08-13T00:45:40.192Z,19.00
2018-08-13T00:46:40.753Z,19.07
2018-08-13T00:47:41.315Z,19.02
2018-08-13T00:48:41.900Z,19.06
2018-08-13T00:49:42.462Z,19.02
2018-08-13T00:50:43.046Z,19.07
2018-08-13T00:51:43.608Z,18.98
2018-08-13T00:52:44.191Z,19.06
2018-08-13T00:53:44.752Z,19.11
2018-08-13T00:54:45.313Z,19.06
2018-08-13T00:55:45.876Z,18.99
2018-08-13T00:56:46.440Z,19.09
2018-08-13T00:57:47.004Z,19.16
2018-08-13T00:58:47.568Z,19.14
2018-08-13T00:59:48.130Z,19.14
2018-08-13T01:00:48.715Z,19.14
2018-08-13T01:01:49.278Z,19.18
2018-08-13T01:02:49.859Z,19.21
2018-08-13T01:03:50.422Z,19.14
2018-08-13T01:04:51.005Z,19.25
2018-08-13T01:05:51.567Z,19.24
2018-08-13T01:06:52.129Z,19.16
2018-08-13T01:07:52.692Z,19.18
2018-08-13T01:08:53.257Z,19.22
2018-08-13T01:09:53.819Z,19.25
2018-08-13T01:10:54.383Z,19.36
2018-08-13T01:11:54.944Z,19.25
2018-08-13T01:12:55.512Z,19.30
2018-08-13T01:13:56.071Z,19.27
2018-08-13T01:14:56.655Z,19.29
2018-08-13T01:15:57.221Z,19.30
2018-08-13T01:16:57.781Z,19.33
2018-08-13T01:17:58.344Z,19.25
2018-08-13T01:18:58.917Z,19.27
2018-08-13T01:19:59.471Z,19.27
2018-08-13T01:21:00.037Z,19.24
2018-08-13T01:22:00.595Z,19.24
2018-08-13T01:23:01.157Z,19.25
2018-08-13T01:24:01.722Z,19.34
2018-08-13T01:25:02.285Z,19.40
2018-08-13T01:26:02.847Z,19.34
2018-08-13T01:27:03.410Z,19.43
2018-08-13T01:28:03.972Z,19.37
2018-08-13T01:29:04.542Z,19.49
2018-08-13T01:30:05.101Z,19.49
2018-08-13T01:31:05.662Z,19.55
2018-08-13T01:32:06.224Z,19.62
2018-08-13T01:33:06.789Z,19.56
2018-08-13T01:34:07.353Z,19.55
2018-08-13T01:35:07.938Z,19.56
2018-08-13T01:36:08.499Z,19.55
2018-08-13T01:37:09.062Z,19.64
2018-08-13T01:38:09.628Z,19.59
2018-08-13T01:39:10.188Z,19.59
2018-08-13T01:40:10.752Z,19.64
2018-08-13T01:41:11.314Z,19.64
2018-08-13T01:42:11.875Z,19.67
2018-08-13T01:43:12.460Z,19.67
2018-08-13T01:44:13.023Z,19.70
2018-08-13T01:45:13.587Z,19.69
2018-08-13T01:46:14.149Z,19.73
2018-08-13T01:47:14.713Z,19.70
2018-08-13T01:48:15.276Z,19.67
2018-08-13T01:49:15.840Z,19.70
2018-08-13T01:50:16.403Z,19.69
2018-08-13T01:51:16.966Z,19.70
2018-08-13T01:52:17.528Z,19.73
2018-08-13T01:53:18.089Z,19.73
2018-08-13T01:54:18.650Z,19.77
2018-08-13T01:55:19.215Z,19.77
2018-08-13T01:56:19.778Z,19.76
2018-08-13T01:57:20.342Z,19.76
2018-08-13T01:58:20.905Z,19.73
2018-08-13T01:59:21.469Z,19.67
2018-08-13T02:00:22.032Z,19.70
2018-08-13T02:01:22.608Z,19.69
2018-08-13T02:02:23.181Z,19.73
2018-08-13T02:03:23.743Z,19.70
2018-08-13T02:04:24.304Z,19.73
2018-08-13T02:05:24.888Z,19.67
2018-08-13T02:06:25.450Z,19.71
2018-08-13T02:07:26.014Z,19.74
2018-08-13T02:08:26.595Z,19.71
2018-08-13T02:09:27.157Z,19.69
2018-08-13T02:10:27.722Z,19.71
2018-08-13T02:11:28.289Z,19.70
2018-08-13T02:12:28.873Z,19.69
2018-08-13T02:13:29.435Z,19.61
2018-08-13T02:14:29.996Z,19.64
2018-08-13T02:15:30.559Z,19.58
2018-08-13T02:16:31.122Z,19.61
2018-08-13T02:17:31.692Z,19.62
2018-08-13T02:18:32.270Z,19.62
2018-08-13T02:19:32.835Z,19.56
2018-08-13T02:20:33.397Z,19.61
2018-08-13T02:21:33.960Z,19.56
2018-08-13T02:22:34.523Z,19.58
2018-08-13T02:23:35.086Z,19.58
2018-08-13T02:24:35.651Z,19.29
2018-08-13T02:25:36.213Z,19.30
2018-08-13T02:26:36.777Z,19.36
2018-08-13T02:27:37.338Z,19.49
2018-08-13T02:28:37.905Z,19.51
2018-08-13T02:29:38.465Z,19.48
2018-08-13T02:30:39.027Z,19.47
2018-08-13T02:31:39.612Z,19.59
2018-08-13T02:32:40.176Z,19.61
2018-08-13T02:33:40.740Z,19.71
2018-08-13T02:34:41.302Z,19.70
2018-08-13T02:35:41.866Z,19.77
2018-08-13T02:36:42.428Z,19.81
2018-08-13T02:37:42.995Z,19.87
2018-08-13T02:38:43.554Z,19.96
2018-08-13T02:39:44.148Z,19.92
2018-08-13T02:40:44.754Z,20.02
2018-08-13T02:41:45.317Z,19.98
2018-08-13T02:42:45.881Z,20.16
2018-08-13T02:43:46.447Z,20.10
2018-08-13T02:44:47.011Z,20.13
2018-08-13T02:45:47.573Z,20.21
2018-08-13T02:46:48.134Z,20.13
2018-08-13T02:47:48.719Z,20.19
2018-08-13T02:48:49.304Z,20.26
2018-08-13T02:49:49.868Z,20.10
2018-08-13T02:50:50.432Z,20.10
2018-08-13T02:51:50.993Z,20.19
2018-08-13T02:52:51.557Z,20.19
2018-08-13T02:53:52.120Z,20.28
2018-08-13T02:54:52.684Z,20.10
2018-08-13T02:55:53.245Z,20.22
2018-08-13T02:56:53.811Z,20.25
2018-08-13T02:57:54.393Z,20.17
2018-08-13T02:58:54.977Z,20.26
2018-08-13T02:59:55.538Z,20.26
2018-08-13T03:00:56.109Z,20.32
2018-08-13T03:01:56.668Z,20.14
2018-08-13T03:02:57.232Z,20.26
2018-08-13T03:03:57.796Z,20.21
2018-08-13T03:04:58.376Z,20.29
2018-08-13T03:05:58.941Z,20.17
2018-08-13T03:06:59.505Z,20.19
2018-08-13T03:08:00.069Z,20.24
2018-08-13T03:09:00.651Z,20.22
2018-08-13T03:10:01.216Z,20.32
2018-08-13T03:11:01.809Z,20.25
2018-08-13T03:12:02.391Z,20.32
2018-08-13T03:13:02.954Z,20.26
2018-08-13T03:14:03.518Z,20.17
2018-08-13T03:15:04.088Z,20.22
2018-08-13T03:16:04.648Z,20.26
2018-08-13T03:17:05.211Z,20.17
2018-08-13T03:18:05.774Z,20.26
2018-08-13T03:19:06.340Z,20.16
2018-08-13T03:20:06.904Z,20.25
2018-08-13T03:21:07.485Z,20.16
2018-08-13T03:22:08.069Z,20.25
2018-08-13T03:23:08.635Z,20.22
2018-08-13T03:24:09.216Z,20.11
2018-08-13T03:25:09.782Z,20.03
2018-08-13T03:26:10.344Z,20.09
2018-08-13T03:27:10.908Z,20.02
2018-08-13T03:28:11.471Z,20.04
2018-08-13T03:29:12.035Z,19.99
2018-08-13T03:30:12.597Z,19.92
2018-08-13T03:31:13.162Z,19.85
2018-08-13T03:32:13.726Z,19.74
2018-08-13T03:33:14.288Z,19.73
2018-08-13T03:34:14.852Z,19.73
2018-08-13T03:35:15.412Z,19.71
2018-08-13T03:36:15.977Z,19.64
2018-08-13T03:37:16.540Z,19.44
2018-08-13T03:38:17.101Z,19.36
2018-08-13T03:39:17.662Z,19.29
2018-08-13T03:40:18.227Z,19.27
2018-08-13T03:41:18.790Z,19.34
2018-08-13T03:42:19.350Z,19.29
2018-08-13T03:43:19.913Z,19.22
2018-08-13T03:44:20.477Z,19.15
2018-08-13T03:45:21.041Z,19.12
2018-08-13T03:46:21.603Z,18.98
2018-08-13T03:47:22.167Z,18.98
2018-08-13T03:48:22.734Z,18.98
2018-08-13T03:49:23.295Z,18.96
2018-08-13T03:50:23.858Z,18.93
2018-08-13T03:51:24.420Z,18.85
2018-08-13T03:52:24.987Z,18.80
2018-08-13T03:53:25.543Z,18.81
2018-08-13T03:54:26.107Z,18.77
2018-08-13T03:55:26.669Z,18.63
2018-08-13T03:56:27.253Z,18.65
2018-08-13T03:57:27.817Z,18.65
2018-08-13T03:58:28.379Z,18.48
2018-08-13T03:59:28.941Z,18.48
2018-08-13T04:00:29.502Z,18.51
2018-08-13T04:01:30.066Z,18.40
2018-08-13T04:02:30.629Z,18.34
2018-08-13T04:03:31.192Z,18.35
2018-08-13T04:04:31.775Z,18.29
2018-08-13T04:05:32.360Z,18.29
2018-08-13T04:06:32.925Z,18.27
2018-08-13T04:07:33.487Z,18.20
2018-08-13T04:08:34.050Z,18.16
2018-08-13T04:09:34.613Z,18.11
2018-08-13T04:10:35.176Z,18.11
2018-08-13T04:11:35.740Z,18.07
2018-08-13T04:12:36.303Z,18.01
2018-08-13T04:13:36.866Z,18.05
2018-08-13T04:14:37.452Z,18.04
2018-08-13T04:15:38.014Z,18.10
2018-08-13T04:16:38.576Z,17.98
2018-08-13T04:17:39.140Z,18.07
2018-08-13T04:18:39.703Z,18.08
2018-08-13T04:19:40.265Z,17.98
2018-08-13T04:20:40.828Z,18.03
2018-08-13T04:21:41.392Z,18.12
2018-08-13T04:22:41.954Z,18.05
2018-08-13T04:23:42.518Z,17.98
2018-08-13T04:24:43.088Z,18.12
2018-08-13T04:25:43.666Z,18.23
2018-08-13T04:26:44.229Z,18.12
2018-08-13T04:27:44.816Z,18.16
2018-08-13T04:28:45.377Z,18.18
2018-08-13T04:29:45.942Z,18.23
2018-08-13T04:30:46.501Z,18.16
2018-08-13T04:31:47.065Z,18.12
2018-08-13T04:32:47.650Z,18.11
2018-08-13T04:33:48.211Z,18.12
2018-08-13T04:34:48.776Z,18.18
2018-08-13T04:35:49.341Z,18.22
2018-08-13T04:36:49.906Z,18.34
2018-08-13T04:37:50.469Z,18.34
2018-08-13T04:38:51.056Z,18.35
2018-08-13T04:39:51.622Z,18.35
2018-08-13T04:40:52.208Z,18.27
2018-08-13T04:41:52.771Z,18.26
2018-08-13T04:42:53.357Z,18.23
2018-08-13T04:43:53.921Z,18.23
2018-08-13T04:44:54.487Z,18.26
2018-08-13T04:45:55.056Z,18.16
2018-08-13T04:46:55.615Z,18.14
2018-08-13T04:47:56.179Z,18.08
2018-08-13T04:48:56.744Z,18.10
2018-08-13T04:49:57.307Z,18.12
2018-08-13T04:50:57.871Z,18.12
2018-08-13T04:51:58.437Z,18.11
2018-08-13T04:52:59.000Z,18.10
2018-08-13T04:53:59.565Z,18.12
2018-08-13T04:55:00.148Z,18.08
2018-08-13T04:56:00.710Z,18.16
2018-08-13T04:57:01.290Z,18.10
2018-08-13T04:58:01.871Z,18.05
2018-08-13T04:59:02.454Z,18.01
2018-08-13T05:00:03.013Z,17.97
2018-08-13T05:01:03.566Z,17.95
2018-08-13T05:02:04.130Z,17.93
2018-08-13T05:03:04.716Z,18.00
2018-08-13T05:04:05.281Z,18.00
2018-08-13T05:05:05.845Z,17.97
2018-08-13T05:06:06.410Z,18.04
2018-08-13T05:07:06.976Z,17.95
2018-08-13T05:08:07.541Z,18.01
2018-08-13T05:09:08.104Z,17.97
2018-08-13T05:10:08.667Z,17.92
2018-08-13T05:11:09.230Z,17.93
2018-08-13T05:12:09.794Z,18.01
2018-08-13T05:13:10.360Z,17.98
2018-08-13T05:14:10.924Z,17.93
2018-08-13T05:15:11.508Z,17.85
2018-08-13T05:16:12.076Z,17.86
2018-08-13T05:17:12.662Z,17.80
2018-08-13T05:18:13.227Z,17.75
2018-08-13T05:19:13.793Z,17.70
2018-08-13T05:20:14.379Z,17.63
2018-08-13T05:21:15.031Z,17.65
2018-08-13T05:22:15.509Z,17.54
2018-08-13T05:23:16.076Z,17.60
2018-08-13T05:24:16.641Z,17.63
2018-08-13T05:25:17.204Z,17.52
2018-08-13T05:26:17.774Z,17.59
2018-08-13T05:27:18.403Z,17.55
2018-08-13T05:28:18.986Z,17.60
2018-08-13T05:29:19.554Z,17.51
2018-08-13T05:30:20.180Z,17.60
2018-08-13T05:31:20.692Z,17.51
2018-08-13T05:32:21.385Z,17.48
2018-08-13T05:33:21.936Z,17.42
2018-08-13T05:34:22.499Z,17.31
2018-08-13T05:35:23.066Z,17.19
2018-08-13T05:36:23.633Z,17.23
2018-08-13T05:37:24.201Z,17.26
2018-08-13T05:38:24.766Z,17.29
2018-08-13T05:39:25.354Z,17.19
2018-08-13T05:40:25.932Z,17.29
2018-08-13T05:41:26.508Z,17.30
2018-08-13T05:42:27.077Z,17.26
2018-08-13T05:43:27.767Z,17.29
2018-08-13T05:44:28.291Z,17.26
2018-08-13T05:45:28.859Z,17.30
2018-08-13T05:46:29.424Z,17.27
2018-08-13T05:47:30.012Z,17.27
2018-08-13T05:48:30.578Z,17.23
2018-08-13T05:49:31.148Z,17.33
2018-08-13T05:50:31.715Z,17.37
2018-08-13T05:51:32.280Z,17.37
2018-08-13T05:52:32.849Z,17.34
2018-08-13T05:53:33.416Z,17.39
2018-08-13T05:54:33.984Z,17.36
2018-08-13T05:55:34.554Z,17.36
2018-08-13T05:56:35.117Z,17.34
2018-08-13T05:57:35.684Z,17.44
2018-08-13T05:58:36.252Z,17.48
2018-08-13T05:59:36.820Z,17.51
2018-08-13T06:00:37.390Z,17.54
2018-08-13T06:01:37.957Z,17.55
2018-08-13T06:02:38.524Z,17.70
2018-08-13T06:03:39.113Z,17.64
2018-08-13T06:04:39.702Z,17.71
2018-08-13T06:05:40.292Z,17.72
2018-08-13T06:06:40.882Z,17.79
2018-08-13T06:07:41.449Z,17.79
2018-08-13T06:08:42.016Z,17.79
2018-08-13T06:09:42.596Z,17.79
2018-08-13T06:10:43.168Z,17.80
2018-08-13T06:11:43.846Z,17.80
2018-08-13T06:12:44.321Z,17.83
2018-08-13T06:13:44.887Z,17.83
2018-08-13T06:14:45.456Z,17.83
2018-08-13T06:15:46.023Z,17.79
2018-08-13T06:16:46.593Z,17.74
2018-08-13T06:17:47.159Z,17.86
2018-08-13T06:18:47.728Z,17.75
2018-08-13T06:19:48.297Z,17.85
2018-08-13T06:20:48.870Z,17.77
2018-08-13T06:21:49.430Z,17.82
2018-08-13T06:22:49.996Z,17.86
2018-08-13T06:23:50.563Z,17.82
2018-08-13T06:24:51.134Z,17.85
2018-08-13T06:25:51.700Z,17.95
2018-08-13T06:26:52.273Z,17.97
2018-08-13T06:27:52.860Z,18.03
2018-08-13T06:28:53.427Z,17.98
2018-08-13T06:29:53.996Z,18.11
2018-08-13T06:30:54.746Z,18.22
2018-08-13T06:31:55.338Z,18.14
2018-08-13T06:32:55.908Z,18.18
2018-08-13T06:33:56.489Z,18.30
2018-08-13T06:34:57.049Z,18.29
2018-08-13T06:35:57.618Z,18.38
2018-08-13T06:36:58.188Z,18.38
2018-08-13T06:37:58.757Z,18.34
2018-08-13T06:38:59.325Z,18.38
2018-08-13T06:39:59.894Z,18.34
2018-08-13T06:41:00.462Z,18.38
2018-08-13T06:42:01.030Z,18.38
2018-08-13T06:43:01.598Z,18.43
2018-08-13T06:44:02.168Z,18.45
2018-08-13T06:45:02.734Z,18.55
2018-08-13T06:46:03.303Z,18.59
2018-08-13T06:47:03.878Z,18.53
2018-08-13T06:48:04.441Z,18.68
2018-08-13T06:49:05.034Z,18.69
2018-08-13T06:50:05.602Z,18.63
2018-08-13T06:51:06.171Z,18.66
2018-08-13T06:52:06.744Z,18.63
2018-08-13T06:53:07.332Z,18.63
2018-08-13T06:54:07.899Z,18.62
2018-08-13T06:55:08.520Z,18.71
2018-08-13T06:56:09.037Z,18.55
2018-08-13T06:57:09.606Z,18.69
2018-08-13T06:58:10.269Z,18.73
2018-08-13T06:59:10.767Z,18.69
2018-08-13T07:00:11.337Z,18.80
2018-08-13T07:01:11.911Z,18.92
2018-08-13T07:02:12.484Z,18.87
2018-08-13T07:03:13.049Z,19.11
2018-08-13T07:04:13.617Z,18.99
2018-08-13T07:05:14.188Z,18.99
2018-08-13T07:06:14.771Z,18.99
2018-08-13T07:07:15.346Z,19.00
2018-08-13T07:08:15.918Z,19.12
2018-08-13T07:09:16.511Z,19.14
2018-08-13T07:10:17.097Z,19.14
2018-08-13T07:11:17.668Z,19.15
2018-08-13T07:12:18.244Z,19.15
2018-08-13T07:13:18.831Z,19.22
2018-08-13T07:14:19.401Z,19.12
2018-08-13T07:15:19.972Z,19.18
2018-08-13T07:16:20.541Z,19.21
2018-08-13T07:17:21.111Z,19.16
2018-08-13T07:18:21.680Z,19.14
2018-08-13T07:19:22.250Z,19.16
2018-08-13T07:20:22.822Z,19.22
2018-08-13T07:21:23.526Z,19.25
2018-08-13T07:22:24.115Z,19.33
2018-08-13T07:23:24.670Z,19.21
2018-08-13T07:24:25.412Z,19.37
2018-08-13T07:25:25.946Z,19.30
2018-08-13T07:26:26.516Z,19.36
2018-08-13T07:27:27.089Z,19.39
2018-08-13T07:28:27.658Z,19.36
2018-08-13T07:29:28.227Z,19.37
2018-08-13T07:30:28.921Z,19.36
2018-08-13T07:31:29.460Z,19.44
2018-08-13T07:32:30.029Z,19.39
2018-08-13T07:33:30.687Z,19.33
2018-08-13T07:34:31.182Z,19.40
2018-08-13T07:35:31.754Z,19.49
2018-08-13T07:36:32.322Z,19.47
2018-08-13T07:37:32.889Z,19.43
2018-08-13T07:38:33.457Z,19.39
2018-08-13T07:39:34.063Z,19.39
2018-08-13T07:40:34.594Z,19.40
2018-08-13T07:41:35.160Z,19.39
2018-08-13T07:42:35.728Z,19.43
2018-08-13T07:43:36.300Z,19.44
2018-08-13T07:44:36.874Z,19.41
2018-08-13T07:45:37.513Z,19.39
2018-08-13T07:46:38.096Z,19.48
2018-08-13T07:47:38.580Z,19.47
2018-08-13T07:48:39.150Z,19.58
2018-08-13T07:49:39.742Z,19.71
2018-08-13T07:50:40.300Z,19.67
2018-08-13T07:51:40.964Z,19.84
2018-08-13T07:52:41.449Z,19.73
2018-08-13T07:53:42.019Z,19.87
2018-08-13T07:54:42.589Z,19.95
2018-08-13T07:55:43.156Z,19.94
2018-08-13T07:56:43.726Z,19.98
2018-08-13T07:57:44.296Z,20.09
2018-08-13T07:58:44.866Z,20.02
2018-08-13T07:59:45.637Z,19.98
2018-08-13T08:00:46.199Z,20.13
2018-08-13T08:01:46.768Z,20.22
2018-08-13T08:02:47.338Z,20.28
2018-08-13T08:03:47.908Z,20.25
2018-08-13T08:04:48.480Z,20.35
2018-08-13T08:05:49.050Z,20.40
2018-08-13T08:06:49.620Z,20.32
2018-08-13T08:07:50.192Z,20.42
2018-08-13T08:08:50.762Z,20.55
2018-08-13T08:09:51.334Z,20.60
2018-08-13T08:10:51.905Z,20.55
2018-08-13T08:11:52.481Z,20.70
2018-08-13T08:12:53.070Z,20.69
2018-08-13T08:13:53.641Z,20.70
2018-08-13T08:14:54.212Z,20.77
2018-08-13T08:15:54.783Z,20.69
2018-08-13T08:16:55.354Z,20.75
2018-08-13T08:17:55.924Z,20.73
2018-08-13T08:18:56.496Z,20.75
2018-08-13T08:19:57.068Z,20.80
2018-08-13T08:20:57.639Z,20.84
2018-08-13T08:21:58.211Z,20.78
2018-08-13T08:22:58.781Z,20.82
2018-08-13T08:23:59.352Z,20.81
2018-08-13T08:24:59.922Z,20.88
2018-08-13T08:26:00.492Z,20.85
2018-08-13T08:27:01.063Z,20.95
2018-08-13T08:28:01.634Z,21.00
2018-08-13T08:29:02.239Z,21.00
2018-08-13T08:30:02.775Z,21.06
2018-08-13T08:31:03.346Z,21.12
2018-08-13T08:32:03.918Z,21.10
2018-08-13T08:33:04.491Z,21.09
2018-08-13T08:34:05.068Z,21.21
2018-08-13T08:35:05.640Z,21.30
2018-08-13T08:36:06.217Z,21.76
2018-08-13T08:37:06.810Z,22.58
2018-08-13T08:38:07.384Z,23.54
2018-08-13T08:39:07.958Z,24.24
2018-08-13T08:40:08.534Z,24.31
2018-08-13T08:41:09.107Z,24.38
2018-08-13T08:42:09.683Z,24.33
2018-08-13T08:43:10.262Z,24.33
2018-08-13T08:44:10.837Z,24.46
2018-08-13T08:45:11.415Z,24.46
2018-08-13T08:46:12.012Z,24.18
2018-08-13T08:47:12.607Z,24.11
2018-08-13T08:48:13.185Z,24.17
2018-08-13T08:49:13.760Z,24.16
2018-08-13T08:50:14.335Z,24.20
2018-08-13T08:51:14.908Z,24.13
2018-08-13T08:52:15.503Z,23.91
2018-08-13T08:53:16.079Z,23.95
2018-08-13T08:54:16.774Z,23.98
2018-08-13T08:55:17.262Z,23.79
2018-08-13T08:56:17.834Z,23.64
2018-08-13T08:57:18.418Z,23.68
2018-08-13T08:58:19.017Z,23.68
2018-08-13T08:59:19.594Z,23.74
2018-08-13T09:00:20.186Z,23.62
2018-08-13T09:01:20.759Z,23.53
2018-08-13T09:02:21.356Z,23.58
2018-08-13T09:03:21.930Z,23.61
2018-08-13T09:04:22.508Z,23.84
2018-08-13T09:05:23.081Z,23.90
2018-08-13T09:06:23.656Z,24.18
2018-08-13T09:07:24.231Z,24.58
2018-08-13T09:08:24.807Z,25.06
2018-08-13T09:09:25.384Z,25.16
2018-08-13T09:10:25.959Z,25.72
2018-08-13T09:11:26.560Z,25.91
2018-08-13T09:12:27.139Z,26.00
2018-08-13T09:13:27.718Z,26.28
2018-08-13T09:14:28.300Z,25.94
2018-08-13T09:15:28.876Z,26.13
2018-08-13T09:16:29.453Z,26.40
2018-08-13T09:17:30.032Z,26.59
2018-08-13T09:18:30.608Z,26.34
2018-08-13T09:19:31.185Z,26.16
2018-08-13T09:20:31.762Z,26.21
2018-08-13T09:21:32.371Z,25.91
2018-08-13T09:22:32.961Z,25.81
2018-08-13T09:23:33.539Z,25.99
2018-08-13T09:24:34.116Z,26.22
2018-08-13T09:25:34.741Z,26.44
2018-08-13T09:26:35.273Z,26.24
2018-08-13T09:27:35.851Z,26.26
2018-08-13T09:28:36.452Z,26.02
2018-08-13T09:29:37.028Z,26.03
2018-08-13T09:30:37.608Z,26.16
2018-08-13T09:31:38.185Z,26.48
2018-08-13T09:32:38.793Z,26.77
2018-08-13T09:33:39.419Z,26.58
2018-08-13T09:34:39.999Z,26.59
2018-08-13T09:35:40.580Z,26.63
2018-08-13T09:36:41.234Z,26.76
2018-08-13T09:37:41.739Z,26.76
2018-08-13T09:38:42.335Z,26.76
2018-08-13T09:39:42.918Z,26.58
2018-08-13T09:40:43.489Z,26.28
2018-08-13T09:41:44.068Z,26.00
2018-08-13T09:42:44.648Z,26.00
2018-08-13T09:43:45.221Z,26.02
2018-08-13T09:44:45.798Z,26.21
2018-08-13T09:45:46.376Z,26.09
2018-08-13T09:46:46.954Z,25.93
2018-08-13T09:47:47.953Z,25.87
2018-08-13T09:48:48.446Z,25.73
2018-08-13T09:49:49.020Z,25.48
2018-08-13T09:50:49.594Z,25.32
2018-08-13T09:51:50.171Z,24.98
2018-08-13T09:52:50.744Z,25.01
2018-08-13T09:53:51.329Z,24.98
2018-08-13T09:54:51.911Z,25.01
2018-08-13T09:55:52.485Z,25.09
2018-08-13T09:56:53.063Z,25.17
2018-08-13T09:57:53.640Z,25.02
2018-08-13T09:58:54.216Z,25.04
2018-08-13T09:59:54.794Z,25.21
2018-08-13T10:00:55.371Z,25.33
2018-08-13T10:01:55.947Z,25.41
2018-08-13T10:02:56.526Z,25.56
2018-08-13T10:03:57.102Z,25.65
2018-08-13T10:04:57.679Z,25.69
2018-08-13T10:05:58.255Z,25.80
2018-08-13T10:06:58.987Z,25.61
2018-08-13T10:07:59.558Z,25.58
2018-08-13T10:09:00.136Z,25.58
2018-08-13T10:10:00.712Z,25.20
2018-08-13T10:11:01.287Z,25.24
2018-08-13T10:12:01.863Z,25.51
2018-08-13T10:13:02.439Z,25.76
2018-08-13T10:14:03.026Z,25.90
2018-08-13T10:15:03.596Z,25.75
2018-08-13T10:16:04.175Z,25.86
2018-08-13T10:17:04.754Z,25.71
2018-08-13T10:18:05.351Z,25.75
2018-08-13T10:19:05.931Z,25.87
2018-08-13T10:20:06.530Z,25.87
2018-08-13T10:21:07.113Z,26.02
2018-08-13T10:22:07.692Z,26.24
2018-08-13T10:23:08.270Z,26.22
2018-08-13T10:24:08.848Z,26.08
2018-08-13T10:25:09.428Z,26.34
2018-08-13T10:26:10.011Z,26.66
2018-08-13T10:27:10.611Z,27.11
2018-08-13T10:28:11.189Z,27.18
2018-08-13T10:29:11.769Z,27.20
2018-08-13T10:30:12.375Z,27.00
2018-08-13T10:31:12.970Z,26.96
2018-08-13T10:32:13.551Z,26.88
2018-08-13T10:33:14.147Z,26.62
2018-08-13T10:34:14.747Z,26.76
2018-08-13T10:35:15.349Z,26.93
2018-08-13T10:36:15.933Z,27.42
2018-08-13T10:37:16.545Z,27.96
2018-08-13T10:38:17.097Z,28.79
2018-08-13T10:39:17.676Z,29.10
2018-08-13T10:40:18.276Z,29.08
2018-08-13T10:41:18.858Z,29.11
2018-08-13T10:42:19.437Z,28.96
2018-08-13T10:43:20.016Z,28.91
2018-08-13T10:44:20.730Z,28.87
2018-08-13T10:45:21.283Z,28.55
2018-08-13T10:46:21.884Z,28.27
2018-08-13T10:47:22.464Z,28.30
2018-08-13T10:48:23.047Z,28.23
2018-08-13T10:49:23.627Z,28.08
2018-08-13T10:50:24.207Z,27.81
2018-08-13T10:51:24.809Z,27.71
2018-08-13T10:52:25.386Z,27.68
2018-08-13T10:53:25.966Z,27.74
2018-08-13T10:54:26.548Z,27.54
2018-08-13T10:55:27.122Z,27.62
2018-08-13T10:56:27.700Z,27.50
2018-08-13T10:57:28.277Z,27.18
2018-08-13T10:58:28.875Z,27.06
2018-08-13T10:59:29.474Z,26.96
2018-08-13T11:00:30.052Z,27.02
2018-08-13T11:01:30.630Z,26.93
2018-08-13T11:02:31.392Z,26.66
2018-08-13T11:03:31.969Z,26.55
2018-08-13T11:04:32.536Z,26.25
2018-08-13T11:05:33.121Z,25.95
2018-08-13T11:06:33.698Z,25.95
2018-08-13T11:07:34.276Z,25.98
2018-08-13T11:08:34.853Z,25.83
2018-08-13T11:09:35.451Z,25.73
2018-08-13T11:10:36.030Z,25.58
2018-08-13T11:11:36.603Z,25.51
2018-08-13T11:12:37.180Z,25.26
2018-08-13T11:13:37.754Z,24.99
2018-08-13T11:14:38.492Z,24.91
2018-08-13T11:15:39.057Z,24.53
2018-08-13T11:16:39.653Z,24.21
2018-08-13T11:17:40.227Z,23.84
2018-08-13T11:18:40.798Z,23.43
2018-08-13T11:19:41.368Z,23.00
2018-08-13T11:20:42.158Z,22.62
2018-08-13T11:21:42.759Z,22.03
2018-08-13T11:22:43.333Z,21.49
2018-08-13T11:23:44.185Z,21.18
2018-08-13T11:24:44.855Z,20.81
2018-08-13T11:25:45.426Z,20.51
2018-08-13T11:26:45.993Z,20.19
2018-08-13T11:27:46.573Z,19.98
2018-08-13T11:28:47.134Z,19.94
2018-08-13T11:29:47.702Z,19.74
2018-08-13T11:30:48.478Z,19.66
2018-08-13T11:31:49.480Z,19.56
2018-08-13T11:32:50.051Z,19.55
2018-08-13T11:33:50.671Z,19.58
2018-08-13T11:34:51.265Z,19.47
2018-08-13T11:35:51.786Z,19.51
2018-08-13T11:36:52.565Z,19.56
2018-08-13T11:37:53.357Z,19.58
2018-08-13T11:38:54.035Z,19.61
2018-08-13T11:39:54.593Z,19.67
2018-08-13T11:40:55.364Z,19.73
2018-08-13T11:41:55.993Z,19.77
2018-08-13T11:42:56.584Z,19.80
2018-08-13T11:43:57.392Z,19.81
2018-08-13T11:44:58.014Z,19.71
2018-08-13T11:45:58.605Z,19.80
2018-08-13T11:46:59.368Z,19.91
2018-08-13T11:47:59.962Z,20.13
2018-08-13T11:49:00.538Z,20.25
2018-08-13T11:50:01.224Z,20.16
2018-08-13T11:51:01.931Z,20.19
2018-08-13T11:52:02.474Z,20.26
2018-08-13T11:53:03.044Z,20.48
2018-08-13T11:54:03.615Z,20.60
2018-08-13T11:55:04.187Z,20.85
2018-08-13T11:56:04.998Z,21.30
2018-08-13T11:57:05.647Z,21.54
2018-08-13T11:58:06.250Z,21.64
2018-08-13T11:59:06.825Z,21.65
2018-08-13T12:00:07.406Z,21.79
2018-08-13T12:01:08.047Z,21.72
2018-08-13T12:02:08.837Z,21.82
2018-08-13T12:03:09.406Z,21.92
2018-08-13T12:04:09.998Z,22.21
2018-08-13T12:05:11.163Z,22.24
2018-08-13T12:06:12.659Z,22.03
2018-08-13T12:07:13.538Z,22.01
2018-08-13T12:08:14.112Z,21.91
2018-08-13T12:09:14.708Z,22.02
2018-08-13T12:10:15.281Z,21.99
2018-08-13T12:11:15.959Z,21.99
2018-08-13T12:12:16.456Z,22.01
2018-08-13T12:13:17.282Z,22.01
2018-08-13T12:14:17.879Z,21.86
2018-08-13T12:15:18.453Z,21.85
2018-08-13T12:16:19.024Z,21.85
2018-08-13T12:17:19.600Z,21.76
2018-08-13T12:18:20.170Z,21.75
2018-08-13T12:19:20.742Z,21.75
2018-08-13T12:20:21.337Z,21.76
2018-08-13T12:21:21.909Z,21.85
2018-08-13T12:22:22.479Z,21.93
2018-08-13T12:23:23.057Z,22.03
2018-08-13T12:24:23.630Z,22.02
2018-08-13T12:25:24.202Z,21.92
2018-08-13T12:26:24.830Z,21.95
2018-08-13T12:27:25.413Z,21.92
2018-08-13T12:28:25.986Z,21.92
2018-08-13T12:29:26.561Z,22.10
2018-08-13T12:30:27.157Z,22.63
2018-08-13T12:31:27.732Z,23.37
2018-08-13T12:32:28.309Z,23.77
2018-08-13T12:33:28.915Z,24.20
2018-08-13T12:34:29.745Z,24.36
2018-08-13T12:35:30.405Z,24.24
2018-08-13T12:36:30.981Z,24.51
2018-08-13T12:37:31.556Z,24.81
2018-08-13T12:38:32.133Z,25.14
2018-08-13T12:39:32.709Z,25.33
2018-08-13T12:40:33.287Z,25.75
2018-08-13T12:41:33.864Z,25.94
2018-08-13T12:42:34.441Z,25.80
2018-08-13T12:43:35.196Z,26.24
2018-08-13T12:44:35.765Z,26.74
2018-08-13T12:45:36.339Z,27.29
2018-08-13T12:46:36.919Z,27.54
2018-08-13T12:47:37.495Z,27.33
2018-08-13T12:48:38.073Z,27.32
2018-08-13T12:49:38.818Z,27.05
2018-08-13T12:50:39.394Z,27.37
2018-08-13T12:51:39.991Z,27.68
2018-08-13T12:52:40.587Z,27.61
2018-08-13T12:53:41.167Z,27.61
2018-08-13T12:54:41.744Z,27.68
2018-08-13T12:55:42.325Z,27.63
2018-08-13T12:56:43.094Z,27.67
2018-08-13T12:57:43.861Z,27.93
2018-08-13T12:58:44.448Z,28.26
2018-08-13T12:59:45.039Z,28.32